Delray Beach, Florida
Current Conditions -  °F | °C
As of 10:55 AM on Friday 21 Nov 2014 (Local Time) from KBCT Reporting Station
Haze Haze  
Wind Chill: 70°   Ceiling: 2000
Heat Index: 70°   Visibility: 7mi
Dew Point: 64°   Wind: 15mph
Humidity: 83%   Direction: 70°ENE
Pressure: 30.21"   Gusts: 28mph
Location:  26.46°N, 80.07°W
Report Text: KBCT 211555Z 07013G24KT 7SM HZ BKN020 21/18 A3021
Loading
Personal Weather Stations






























Interactive Weather Map New forecast layout! Learn more

10-Day Weather Forecast

Advertisements
Track Severe Weather on mobile